Terminal Aerodrome Forecast
Issued by NWS Mt. Holly, NJ

Home | Current Version | Previous Version | Text Only | Print | Product List | Glossary On
Versions: 1 2 3 4 5 6 7 8 9 10 11 12 13 14 15 16 17 18 19 20
000
FTUS41 KPHI 012102 AAA
TAFILG
TAF AMD
KILG 012102Z 0121/0218 29012KT P6SM SCT060 BKN100
      TEMPO 0121/0122 -SHRA BKN060
     FM020000 30006KT P6SM SKC
     FM020600 33004KT P6SM SKC
     FM021400 31005KT P6SM SKC=

USA.gov is the U.S. government's official web portal to all federal, state and local government web resources and services.